7°C Temp
3°C Dewpoint
76% Humidity
Temperature
26 KM/H
16 MPH
14 KTS
360°
Due North

Wind Speed
Overcast
Conditions
Pressure 1007.92 (hPa) - 29.76 (in)
Visibility 6.2 (mi) - 10.0 (km)

Current Conditions
EKCH
Location 50(km)
Metar :EKCH 300320Z AUTO 36014KT 9999 OVC059/// 07/03 Q1008 NOSIG
Fri 30th April 05:20 am

Airport
  Metar Aviation API Data Provided by https://www.checkwx.com/ PHP scripts by weather34.com ©2021